sensor_id;sensor_type;location;lat;lon;timestamp;pressure;altitude;pressure_sealevel;temperature;humidity
69524;BME280;56723;42.694;23.286;2022-10-31T00:01:24;95544.84;;;13.18;54.11
69524;BME280;56723;42.694;23.286;2022-10-31T00:03:52;95532.34;;;13.05;54.45
69524;BME280;56723;42.694;23.286;2022-10-31T00:06:20;95552.47;;;13.11;54.76
69524;BME280;56723;42.694;23.286;2022-10-31T00:08:52;95541.59;;;13.08;54.58
69524;BME280;56723;42.694;23.286;2022-10-31T00:11:20;95539.81;;;13.00;55.13
69524;BME280;56723;42.694;23.286;2022-10-31T00:13:47;95544.19;;;13.08;54.82
69524;BME280;56723;42.694;23.286;2022-10-31T00:16:22;95541.28;;;13.03;54.90
69524;BME280;56723;42.694;23.286;2022-10-31T00:18:55;95546.81;;;13.00;55.03
69524;BME280;56723;42.694;23.286;2022-10-31T00:21:23;95550.06;;;13.02;54.88
69524;BME280;56723;42.694;23.286;2022-10-31T00:23:50;95541.28;;;13.03;54.80
69524;BME280;56723;42.694;23.286;2022-10-31T00:26:17;95541.28;;;13.03;55.02
69524;BME280;56723;42.694;23.286;2022-10-31T00:28:44;95538.19;;;12.99;55.18
69524;BME280;56723;42.694;23.286;2022-10-31T00:31:12;95530.25;;;12.93;55.44
69524;BME280;56723;42.694;23.286;2022-10-31T00:33:40;95534.81;;;12.99;55.49
69524;BME280;56723;42.694;23.286;2022-10-31T00:36:11;95537.91;;;12.94;55.88
69524;BME280;56723;42.694;23.286;2022-10-31T00:38:40;95538.72;;;12.95;56.11
69524;BME280;56723;42.694;23.286;2022-10-31T00:41:07;95534.50;;;12.94;56.70
69524;BME280;56723;42.694;23.286;2022-10-31T00:43:34;95534.97;;;12.89;56.40
69524;BME280;56723;42.694;23.286;2022-10-31T00:46:01;95528.97;;;12.89;56.38
69524;BME280;56723;42.694;23.286;2022-10-31T00:48:41;95523.94;;;12.87;56.56
69524;BME280;56723;42.694;23.286;2022-10-31T00:51:09;95522.47;;;12.84;56.81
69524;BME280;56723;42.694;23.286;2022-10-31T00:53:36;95526.72;;;12.77;57.06
69524;BME280;56723;42.694;23.286;2022-10-31T00:56:03;95528.38;;;12.70;57.29
69524;BME280;56723;42.694;23.286;2022-10-31T00:58:30;95529.53;;;12.60;57.83
69524;BME280;56723;42.694;23.286;2022-10-31T01:00:57;95532.28;;;12.58;58.03
69524;BME280;56723;42.694;23.286;2022-10-31T01:03:29;95541.38;;;12.54;58.13
69524;BME280;56723;42.694;23.286;2022-10-31T01:06:08;95539.75;;;12.53;58.26
69524;BME280;56723;42.694;23.286;2022-10-31T01:08:36;95536.50;;;12.51;58.37
69524;BME280;56723;42.694;23.286;2022-10-31T01:11:26;95541.38;;;12.54;58.34
69524;BME280;56723;42.694;23.286;2022-10-31T01:13:53;95530.34;;;12.52;58.35
69524;BME280;56723;42.694;23.286;2022-10-31T01:16:23;95535.88;;;12.57;58.28
69524;BME280;56723;42.694;23.286;2022-10-31T01:18:51;95539.94;;;12.60;58.15
69524;BME280;56723;42.694;23.286;2022-10-31T01:21:21;95541.72;;;12.59;58.38
69524;BME280;56723;42.694;23.286;2022-10-31T01:23:49;95547.56;;;12.61;58.39
69524;BME280;56723;42.694;23.286;2022-10-31T01:26:19;95547.88;;;12.58;58.39
69524;BME280;56723;42.694;23.286;2022-10-31T01:28:55;95541.88;;;12.58;58.51
69524;BME280;56723;42.694;23.286;2022-10-31T01:31:25;95545.94;;;12.60;58.83
69524;BME280;56723;42.694;23.286;2022-10-31T01:33:53;95542.38;;;12.61;59.50
69524;BME280;56723;42.694;23.286;2022-10-31T01:36:28;95543.00;;;12.63;59.52
69524;BME280;56723;42.694;23.286;2022-10-31T01:38:58;95537.16;;;12.61;59.68
69524;BME280;56723;42.694;23.286;2022-10-31T01:41:31;95545.91;;;12.68;59.78
69524;BME280;56723;42.694;23.286;2022-10-31T01:44:00;95551.13;;;12.68;59.66
69524;BME280;56723;42.694;23.286;2022-10-31T01:46:32;95550.78;;;12.71;59.85
69524;BME280;56723;42.694;23.286;2022-10-31T01:49:02;95544.94;;;12.69;60.10
69524;BME280;56723;42.694;23.286;2022-10-31T01:51:36;95548.19;;;12.71;60.02
69524;BME280;56723;42.694;23.286;2022-10-31T01:54:08;95553.88;;;12.75;60.42
69524;BME280;56723;42.694;23.286;2022-10-31T01:56:39;95549.50;;;12.75;60.50
69524;BME280;56723;42.694;23.286;2022-10-31T01:59:10;95549.97;;;12.79;60.47
69524;BME280;56723;42.694;23.286;2022-10-31T02:01:39;95554.38;;;12.78;61.07
69524;BME280;56723;42.694;23.286;2022-10-31T02:04:07;95547.19;;;12.80;60.98
69524;BME280;56723;42.694;23.286;2022-10-31T02:06:43;95551.88;;;12.85;61.27
69524;BME280;56723;42.694;23.286;2022-10-31T02:09:12;95538.72;;;12.87;61.31
69524;BME280;56723;42.694;23.286;2022-10-31T02:11:40;95534.16;;;12.89;61.32
69524;BME280;56723;42.694;23.286;2022-10-31T02:14:10;95533.50;;;12.95;61.70
69524;BME280;56723;42.694;23.286;2022-10-31T02:16:37;95541.13;;;13.04;61.42
69524;BME280;56723;42.694;23.286;2022-10-31T02:19:08;95540.94;;;13.06;61.56
69524;BME280;56723;42.694;23.286;2022-10-31T02:22:10;95536.72;;;13.13;61.38
69524;BME280;56723;42.694;23.286;2022-10-31T02:30:59;95555.06;;;13.28;60.84
69524;BME280;56723;42.694;23.286;2022-10-31T02:33:43;95547.25;;;13.28;60.76
69524;BME280;56723;42.694;23.286;2022-10-31T02:36:26;95559.44;;;13.35;60.92
69524;BME280;56723;42.694;23.286;2022-10-31T02:41:48;95563.13;;;13.41;61.21
69524;BME280;56723;42.694;23.286;2022-10-31T02:47:16;95559.88;;;13.39;60.70
69524;BME280;56723;42.694;23.286;2022-10-31T02:49:58;95575.66;;;13.45;60.61
69524;BME280;56723;42.694;23.286;2022-10-31T02:52:28;95570.28;;;13.47;60.88
69524;BME280;56723;42.694;23.286;2022-10-31T02:55:57;95566.22;;;13.44;60.79
69524;BME280;56723;42.694;23.286;2022-10-31T02:58:13;95563.63;;;13.36;61.38
69524;BME280;56723;42.694;23.286;2022-10-31T03:09:06;95585.00;;;13.07;62.77
69524;BME280;56723;42.694;23.286;2022-10-31T03:14:42;95583.75;;;12.87;63.57
69524;BME280;56723;42.694;23.286;2022-10-31T03:17:17;95578.91;;;12.76;63.17
69524;BME280;56723;42.694;23.286;2022-10-31T03:19:49;95586.88;;;12.66;63.34
69524;BME280;56723;42.694;23.286;2022-10-31T03:22:22;95577.44;;;12.49;64.25
69524;BME280;56723;42.694;23.286;2022-10-31T03:24:52;95581.19;;;12.46;64.44
69524;BME280;56723;42.694;23.286;2022-10-31T03:27:24;95585.91;;;12.43;64.85
69524;BME280;56723;42.694;23.286;2022-10-31T03:29:54;95593.22;;;12.39;64.57
69524;BME280;56723;42.694;23.286;2022-10-31T03:32:35;95596.28;;;12.35;65.46
69524;BME280;56723;42.694;23.286;2022-10-31T03:35:06;95593.38;;;12.30;65.46
69524;BME280;56723;42.694;23.286;2022-10-31T03:37:37;95598.22;;;12.25;65.81
69524;BME280;56723;42.694;23.286;2022-10-31T03:40:10;95600.50;;;12.20;65.95
69524;BME280;56723;42.694;23.286;2022-10-31T03:42:41;95599.84;;;12.18;66.07
69524;BME280;56723;42.694;23.286;2022-10-31T03:45:16;95601.47;;;12.10;66.17
69524;BME280;56723;42.694;23.286;2022-10-31T03:47:44;95599.19;;;11.99;66.80
69524;BME280;56723;42.694;23.286;2022-10-31T03:50:14;95615.06;;;11.96;67.44
69524;BME280;56723;42.694;23.286;2022-10-31T03:55:17;95617.63;;;11.88;67.55
69524;BME280;56723;42.694;23.286;2022-10-31T04:00:15;95610.75;;;11.71;68.39
69524;BME280;56723;42.694;23.286;2022-10-31T04:02:49;95612.66;;;11.61;68.96
69524;BME280;56723;42.694;23.286;2022-10-31T04:05:19;95624.97;;;11.59;69.16
69524;BME280;56723;42.694;23.286;2022-10-31T04:07:50;95618.47;;;11.55;69.42
69524;BME280;56723;42.694;23.286;2022-10-31T04:10:19;95626.91;;;11.49;69.70
69524;BME280;56723;42.694;23.286;2022-10-31T04:12:54;95621.66;;;11.40;70.50
69524;BME280;56723;42.694;23.286;2022-10-31T04:15:31;95628.13;;;11.36;70.59
69524;BME280;56723;42.694;23.286;2022-10-31T04:18:00;95632.31;;;11.29;71.11
69524;BME280;56723;42.694;23.286;2022-10-31T04:20:37;95630.69;;;11.28;71.45
69524;BME280;56723;42.694;23.286;2022-10-31T04:23:13;95624.19;;;11.24;71.51
69524;BME280;56723;42.694;23.286;2022-10-31T04:25:43;95619.66;;;11.26;71.77
69524;BME280;56723;42.694;23.286;2022-10-31T04:28:09;95621.94;;;11.29;71.56
69524;BME280;56723;42.694;23.286;2022-10-31T04:30:36;95629.06;;;11.27;71.91
69524;BME280;56723;42.694;23.286;2022-10-31T04:33:03;95630.22;;;11.33;71.86
69524;BME280;56723;42.694;23.286;2022-10-31T04:35:31;95630.88;;;11.35;71.85
69524;BME280;56723;42.694;23.286;2022-10-31T04:37:58;95632.50;;;11.36;71.60
69524;BME280;56723;42.694;23.286;2022-10-31T04:40:24;95629.75;;;11.37;71.32
69524;BME280;56723;42.694;23.286;2022-10-31T04:43:10;95634.94;;;11.37;72.92
69524;BME280;56723;42.694;23.286;2022-10-31T04:45:38;95628.44;;;11.33;72.51
69524;BME280;56723;42.694;23.286;2022-10-31T04:48:04;95627.94;;;11.30;72.20
69524;BME280;56723;42.694;23.286;2022-10-31T04:50:35;95631.66;;;11.27;74.39
69524;BME280;56723;42.694;23.286;2022-10-31T04:53:02;95630.22;;;11.33;74.50
69524;BME280;56723;42.694;23.286;2022-10-31T04:55:37;95637.38;;;11.39;73.68
69524;BME280;56723;42.694;23.286;2022-10-31T04:58:07;95639.16;;;11.38;72.77
69524;BME280;56723;42.694;23.286;2022-10-31T05:00:34;95645.31;;;11.37;73.23
69524;BME280;56723;42.694;23.286;2022-10-31T05:03:01;95636.53;;;11.30;73.12
69524;BME280;56723;42.694;23.286;2022-10-31T05:05:30;95652.44;;;11.35;73.07
69524;BME280;56723;42.694;23.286;2022-10-31T05:08:00;95648.69;;;11.30;74.32
69524;BME280;56723;42.694;23.286;2022-10-31T05:10:29;95655.66;;;11.29;74.25
69524;BME280;56723;42.694;23.286;2022-10-31T05:13:00;95658.94;;;11.31;74.11
69524;BME280;56723;42.694;23.286;2022-10-31T05:15:46;95659.22;;;11.28;73.91
69524;BME280;56723;42.694;23.286;2022-10-31T05:18:28;95654.69;;;11.30;73.86
69524;BME280;56723;42.694;23.286;2022-10-31T05:21:13;95654.69;;;11.30;73.54
69524;BME280;56723;42.694;23.286;2022-10-31T05:23:48;95659.38;;;11.27;73.16
69524;BME280;56723;42.694;23.286;2022-10-31T05:26:15;95662.44;;;11.22;73.50
69524;BME280;56723;42.694;23.286;2022-10-31T05:28:44;95661.09;;;11.18;73.84
69524;BME280;56723;42.694;23.286;2022-10-31T05:31:10;95660.78;;;11.13;74.14
69524;BME280;56723;42.694;23.286;2022-10-31T05:33:37;95677.59;;;11.09;74.38
69524;BME280;56723;42.694;23.286;2022-10-31T05:36:42;95678.84;;;11.05;75.12
69524;BME280;56723;42.694;23.286;2022-10-31T05:39:13;95685.38;;;11.09;74.94
69524;BME280;56723;42.694;23.286;2022-10-31T05:41:46;95680.63;;;11.04;75.05
69524;BME280;56723;42.694;23.286;2022-10-31T05:44:22;95686.25;;;11.00;75.77
69524;BME280;56723;42.694;23.286;2022-10-31T05:47:18;95689.00;;;10.98;75.32
69524;BME280;56723;42.694;23.286;2022-10-31T05:50:09;95683.38;;;11.03;78.41
69524;BME280;56723;42.694;23.286;2022-10-31T05:52:47;95679.38;;;11.08;76.22
69524;BME280;56723;42.694;23.286;2022-10-31T05:55:34;95675.66;;;11.11;75.29
69524;BME280;56723;42.694;23.286;2022-10-31T05:58:12;95680.53;;;11.14;75.95
69524;BME280;56723;42.694;23.286;2022-10-31T06:00:47;95690.44;;;11.19;75.46
69524;BME280;56723;42.694;23.286;2022-10-31T06:03:14;95689.34;;;11.21;75.07
69524;BME280;56723;42.694;23.286;2022-10-31T06:06:02;95681.41;;;11.23;74.66
69524;BME280;56723;42.694;23.286;2022-10-31T06:08:33;95700.78;;;11.36;73.81
69524;BME280;56723;42.694;23.286;2022-10-31T06:11:04;95699.22;;;11.43;73.53
69524;BME280;56723;42.694;23.286;2022-10-31T06:14:04;95702.78;;;11.51;73.07
69524;BME280;56723;42.694;23.286;2022-10-31T06:16:54;95709.81;;;11.58;72.48
69524;BME280;56723;42.694;23.286;2022-10-31T06:19:40;95706.91;;;11.61;72.52
69524;BME280;56723;42.694;23.286;2022-10-31T06:22:09;95721.06;;;11.67;72.47
69524;BME280;56723;42.694;23.286;2022-10-31T06:24:38;95719.19;;;11.77;71.99
69524;BME280;56723;42.694;23.286;2022-10-31T06:27:19;95722.97;;;11.83;71.69
69524;BME280;56723;42.694;23.286;2022-10-31T06:29:46;95725.41;;;11.84;71.85
69524;BME280;56723;42.694;23.286;2022-10-31T06:32:42;95728.34;;;11.89;71.33
69524;BME280;56723;42.694;23.286;2022-10-31T06:35:09;95731.78;;;11.98;71.34
69524;BME280;56723;42.694;23.286;2022-10-31T06:37:38;95729.88;;;12.08;73.12
69524;BME280;56723;42.694;23.286;2022-10-31T06:40:19;95732.31;;;12.09;70.71
69524;BME280;56723;42.694;23.286;2022-10-31T06:43:09;95739.66;;;12.14;69.67
69524;BME280;56723;42.694;23.286;2022-10-31T06:45:39;95740.47;;;12.14;69.37
69524;BME280;56723;42.694;23.286;2022-10-31T06:48:21;95737.50;;;12.09;69.48
69524;BME280;56723;42.694;23.286;2022-10-31T06:51:08;95730.41;;;12.20;68.99
69524;BME280;56723;42.694;23.286;2022-10-31T06:53:36;95738.22;;;12.20;69.38
69524;BME280;56723;42.694;23.286;2022-10-31T06:56:04;95733.34;;;12.25;69.63
69524;BME280;56723;42.694;23.286;2022-10-31T06:58:37;95735.66;;;12.36;69.80
69524;BME280;56723;42.694;23.286;2022-10-31T07:01:06;95729.03;;;12.41;69.74
69524;BME280;56723;42.694;23.286;2022-10-31T07:03:33;95735.84;;;12.51;68.61
69524;BME280;56723;42.694;23.286;2022-10-31T07:06:01;95731.81;;;12.56;68.21
69524;BME280;56723;42.694;23.286;2022-10-31T07:08:27;95736.34;;;12.62;68.09
69524;BME280;56723;42.694;23.286;2022-10-31T07:10:57;95740.41;;;12.65;67.83
69524;BME280;56723;42.694;23.286;2022-10-31T07:13:27;95738.34;;;12.76;67.81
69524;BME280;56723;42.694;23.286;2022-10-31T07:16:06;95737.03;;;12.89;67.43
69524;BME280;56723;42.694;23.286;2022-10-31T07:18:36;95732.50;;;12.99;67.29
69524;BME280;56723;42.694;23.286;2022-10-31T07:21:03;95730.72;;;13.07;66.94
69524;BME280;56723;42.694;23.286;2022-10-31T07:23:31;95730.88;;;13.22;65.96
69524;BME280;56723;42.694;23.286;2022-10-31T07:26:21;95700.97;;;13.18;65.40
69524;BME280;56723;42.694;23.286;2022-10-31T07:28:48;95717.22;;;13.44;64.87
69524;BME280;56723;42.694;23.286;2022-10-31T07:31:20;95714.88;;;13.66;64.68
69524;BME280;56723;42.694;23.286;2022-10-31T07:33:48;95718.41;;;13.81;63.40
69524;BME280;56723;42.694;23.286;2022-10-31T07:36:38;95714.41;;;14.09;62.78
69524;BME280;56723;42.694;23.286;2022-10-31T07:39:04;95699.06;;;14.14;62.17
69524;BME280;56723;42.694;23.286;2022-10-31T07:41:33;95713.31;;;14.35;61.94
69524;BME280;56723;42.694;23.286;2022-10-31T07:44:01;95706.88;;;14.76;60.64
69524;BME280;56723;42.694;23.286;2022-10-31T07:46:46;95712.50;;;15.11;62.62
69524;BME280;56723;42.694;23.286;2022-10-31T07:49:31;95705.53;;;15.41;58.59
69524;BME280;56723;42.694;23.286;2022-10-31T07:52:28;95696.13;;;15.69;56.95
69524;BME280;56723;42.694;23.286;2022-10-31T07:55:27;95704.88;;;15.91;58.09
69524;BME280;56723;42.694;23.286;2022-10-31T08:00:25;95706.38;;;16.30;54.37
69524;BME280;56723;42.694;23.286;2022-10-31T08:03:04;95701.75;;;16.32;55.21
69524;BME280;56723;42.694;23.286;2022-10-31T08:05:50;95710.53;;;16.60;53.29
69524;BME280;56723;42.694;23.286;2022-10-31T08:08:42;95702.34;;;16.84;52.53
69524;BME280;56723;42.694;23.286;2022-10-31T08:11:09;95705.16;;;16.83;52.31
69524;BME280;56723;42.694;23.286;2022-10-31T08:13:37;95712.44;;;16.87;52.01
69524;BME280;56723;42.694;23.286;2022-10-31T08:16:04;95710.19;;;16.84;52.10
69524;BME280;56723;42.694;23.286;2022-10-31T08:18:39;95706.97;;;17.04;51.21
69524;BME280;56723;42.694;23.286;2022-10-31T08:21:11;95708.19;;;17.08;51.58
69524;BME280;56723;42.694;23.286;2022-10-31T08:23:37;95708.06;;;17.16;52.13
69524;BME280;56723;42.694;23.286;2022-10-31T08:26:06;95714.03;;;17.31;51.13
69524;BME280;56723;42.694;23.286;2022-10-31T08:28:33;95703.88;;;17.49;50.69
69524;BME280;56723;42.694;23.286;2022-10-31T08:31:00;95706.75;;;17.54;50.01
69524;BME280;56723;42.694;23.286;2022-10-31T08:33:47;95702.63;;;17.67;50.54
69524;BME280;56723;42.694;23.286;2022-10-31T08:36:32;95689.38;;;17.75;49.62
69524;BME280;56723;42.694;23.286;2022-10-31T08:39:12;95697.97;;;18.03;49.87
69524;BME280;56723;42.694;23.286;2022-10-31T08:41:41;95693.66;;;18.30;47.96
69524;BME280;56723;42.694;23.286;2022-10-31T08:44:11;95695.97;;;18.53;47.57
69524;BME280;56723;42.694;23.286;2022-10-31T08:46:38;95694.03;;;18.68;46.78
69524;BME280;56723;42.694;23.286;2022-10-31T08:49:04;95699.91;;;18.90;46.94
69524;BME280;56723;42.694;23.286;2022-10-31T08:51:33;95694.28;;;19.26;46.62
69524;BME280;56723;42.694;23.286;2022-10-31T08:54:00;95690.03;;;19.25;45.30
69524;BME280;56723;42.694;23.286;2022-10-31T08:56:33;95695.88;;;19.20;45.71
69524;BME280;56723;42.694;23.286;2022-10-31T08:59:02;95692.44;;;19.33;45.50
69524;BME280;56723;42.694;23.286;2022-10-31T09:01:44;95695.09;;;19.53;45.63
69524;BME280;56723;42.694;23.286;2022-10-31T09:04:11;95695.72;;;19.61;44.28
69524;BME280;56723;42.694;23.286;2022-10-31T09:06:38;95693.03;;;19.68;45.11
69524;BME280;56723;42.694;23.286;2022-10-31T09:09:21;95697.09;;;19.84;43.54
69524;BME280;56723;42.694;23.286;2022-10-31T09:11:48;95702.34;;;19.84;43.47
69524;BME280;56723;42.694;23.286;2022-10-31T09:14:33;95695.03;;;19.86;44.00
69524;BME280;56723;42.694;23.286;2022-10-31T09:17:20;95688.91;;;20.05;44.00
69524;BME280;56723;42.694;23.286;2022-10-31T09:20:07;95694.53;;;20.22;43.18
69524;BME280;56723;42.694;23.286;2022-10-31T09:22:35;95686.19;;;20.31;43.08
69524;BME280;56723;42.694;23.286;2022-10-31T09:25:02;95690.78;;;20.56;44.17
69524;BME280;56723;42.694;23.286;2022-10-31T09:27:29;95686.84;;;20.71;43.06
69524;BME280;56723;42.694;23.286;2022-10-31T09:29:57;95683.81;;;20.99;42.94
69524;BME280;56723;42.694;23.286;2022-10-31T09:32:23;95679.41;;;21.25;41.23
69524;BME280;56723;42.694;23.286;2022-10-31T09:34:50;95681.53;;;21.59;41.78
69524;BME280;56723;42.694;23.286;2022-10-31T09:37:19;95674.28;;;21.73;40.74
69524;BME280;56723;42.694;23.286;2022-10-31T09:39:46;95670.78;;;21.79;39.74
69524;BME280;56723;42.694;23.286;2022-10-31T09:51:23;95672.88;;;22.14;38.11
69524;BME280;56723;42.694;23.286;2022-10-31T09:54:13;95665.44;;;22.40;38.63
69524;BME280;56723;42.694;23.286;2022-10-31T09:56:42;95673.09;;;22.60;37.59
69524;BME280;56723;42.694;23.286;2022-10-31T09:59:12;95667.47;;;22.87;37.75
69524;BME280;56723;42.694;23.286;2022-10-31T10:01:48;95662.91;;;23.05;36.38
69524;BME280;56723;42.694;23.286;2022-10-31T10:04:54;95662.97;;;22.57;37.79
69524;BME280;56723;42.694;23.286;2022-10-31T10:13:04;95657.09;;;23.27;36.87
69524;BME280;56723;42.694;23.286;2022-10-31T10:26:46;95629.38;;;23.76;34.51
69524;BME280;56723;42.694;23.286;2022-10-31T10:29:49;95626.16;;;23.86;33.90
69524;BME280;56723;42.694;23.286;2022-10-31T10:32:25;95619.75;;;23.70;34.81
69524;BME280;56723;42.694;23.286;2022-10-31T10:37:44;95612.94;;;23.86;33.11
69524;BME280;56723;42.694;23.286;2022-10-31T10:40:17;95617.25;;;24.03;33.57
69524;BME280;56723;42.694;23.286;2022-10-31T10:42:53;95608.44;;;24.38;32.96
69524;BME280;56723;42.694;23.286;2022-10-31T10:45:43;95603.44;;;24.70;32.64
69524;BME280;56723;42.694;23.286;2022-10-31T10:48:44;95608.50;;;24.88;32.21
69524;BME280;56723;42.694;23.286;2022-10-31T10:51:20;95606.69;;;25.05;32.61
69524;BME280;56723;42.694;23.286;2022-10-31T10:54:26;95593.19;;;25.07;31.48
69524;BME280;56723;42.694;23.286;2022-10-31T10:59:58;95598.66;;;25.17;32.12
69524;BME280;56723;42.694;23.286;2022-10-31T11:02:31;95594.31;;;25.28;31.52
69524;BME280;56723;42.694;23.286;2022-10-31T11:05:00;95600.03;;;25.36;31.40
69524;BME280;56723;42.694;23.286;2022-10-31T11:07:38;95593.50;;;25.27;31.79
69524;BME280;56723;42.694;23.286;2022-10-31T11:10:11;95595.91;;;25.29;31.08
69524;BME280;56723;42.694;23.286;2022-10-31T11:12:43;95583.38;;;25.41;31.33
69524;BME280;56723;42.694;23.286;2022-10-31T11:15:21;95582.09;;;25.27;30.71
69524;BME280;56723;42.694;23.286;2022-10-31T11:17:51;95585.97;;;25.19;31.30
69524;BME280;56723;42.694;23.286;2022-10-31T11:22:47;95581.88;;;24.49;32.07
69524;BME280;56723;42.694;23.286;2022-10-31T11:25:22;95582.31;;;24.58;31.64
69524;BME280;56723;42.694;23.286;2022-10-31T11:30:41;95583.25;;;24.97;31.68
69524;BME280;56723;42.694;23.286;2022-10-31T11:33:33;95566.66;;;25.24;31.75
69524;BME280;56723;42.694;23.286;2022-10-31T11:38:47;95562.16;;;25.41;30.58
69524;BME280;56723;42.694;23.286;2022-10-31T11:41:17;95556.41;;;25.49;30.04
69524;BME280;56723;42.694;23.286;2022-10-31T11:43:49;95558.25;;;25.65;30.13
69524;BME280;56723;42.694;23.286;2022-10-31T11:46:22;95557.28;;;25.71;30.97
69524;BME280;56723;42.694;23.286;2022-10-31T11:48:53;95545.59;;;25.94;30.00
69524;BME280;56723;42.694;23.286;2022-10-31T11:51:31;95550.84;;;26.11;29.18
69524;BME280;56723;42.694;23.286;2022-10-31T11:54:01;95543.38;;;25.86;29.51
69524;BME280;56723;42.694;23.286;2022-10-31T11:56:42;95545.47;;;25.84;29.65
69524;BME280;56723;42.694;23.286;2022-10-31T11:59:25;95536.84;;;25.94;30.04
69524;BME280;56723;42.694;23.286;2022-10-31T12:01:53;95542.41;;;26.19;29.11
69524;BME280;56723;42.694;23.286;2022-10-31T12:04:49;95540.91;;;26.28;29.23
69524;BME280;56723;42.694;23.286;2022-10-31T12:07:17;95534.13;;;26.37;29.16
69524;BME280;56723;42.694;23.286;2022-10-31T12:09:44;95539.00;;;26.45;28.56
69524;BME280;56723;42.694;23.286;2022-10-31T12:15:15;95540.97;;;26.60;28.45
69524;BME280;56723;42.694;23.286;2022-10-31T12:26:44;95530.56;;;25.61;30.04
69524;BME280;56723;42.694;23.286;2022-10-31T12:45:04;95523.19;;;26.61;28.92
69524;BME280;56723;42.694;23.286;2022-10-31T12:58:55;95520.56;;;26.66;28.50
69524;BME280;56723;42.694;23.286;2022-10-31T13:04:18;95518.06;;;26.54;28.49
69524;BME280;56723;42.694;23.286;2022-10-31T13:06:54;95513.94;;;26.68;28.69
69524;BME280;56723;42.694;23.286;2022-10-31T13:09:37;95524.22;;;26.91;28.50
69524;BME280;56723;42.694;23.286;2022-10-31T13:12:11;95520.19;;;27.21;28.42
69524;BME280;56723;42.694;23.286;2022-10-31T13:14:46;95520.59;;;27.50;27.71
69524;BME280;56723;42.694;23.286;2022-10-31T13:17:33;95517.41;;;27.48;27.58
69524;BME280;56723;42.694;23.286;2022-10-31T13:23:00;95507.47;;;27.85;27.14
69524;BME280;56723;42.694;23.286;2022-10-31T13:25:52;95525.13;;;28.07;27.22
69524;BME280;56723;42.694;23.286;2022-10-31T13:28:40;95519.88;;;28.27;26.37
69524;BME280;56723;42.694;23.286;2022-10-31T13:31:10;95516.69;;;28.35;26.42
69524;BME280;56723;42.694;23.286;2022-10-31T13:33:49;95515.00;;;27.41;27.37
69524;BME280;56723;42.694;23.286;2022-10-31T13:38:52;95521.22;;;26.24;29.25
69524;BME280;56723;42.694;23.286;2022-10-31T13:41:33;95522.03;;;26.51;28.75
69524;BME280;56723;42.694;23.286;2022-10-31T13:44:20;95525.81;;;26.92;27.85
69524;BME280;56723;42.694;23.286;2022-10-31T13:46:48;95514.53;;;27.12;28.44
69524;BME280;56723;42.694;23.286;2022-10-31T13:49:36;95514.72;;;27.43;27.89
69524;BME280;56723;42.694;23.286;2022-10-31T13:54:48;95517.53;;;27.63;27.41
69524;BME280;56723;42.694;23.286;2022-10-31T14:02:50;95530.69;;;27.43;27.15
69524;BME280;56723;42.694;23.286;2022-10-31T14:05:21;95527.00;;;27.49;27.60
69524;BME280;56723;42.694;23.286;2022-10-31T14:07:49;95518.16;;;27.38;27.19
69524;BME280;56723;42.694;23.286;2022-10-31T14:10:28;95524.91;;;27.56;27.20
69524;BME280;56723;42.694;23.286;2022-10-31T14:15:51;95529.81;;;27.32;27.13
69524;BME280;56723;42.694;23.286;2022-10-31T14:18:23;95531.78;;;27.05;27.50
69524;BME280;56723;42.694;23.286;2022-10-31T14:20:50;95529.91;;;27.00;27.35
69524;BME280;56723;42.694;23.286;2022-10-31T14:29:29;95537.09;;;25.92;29.34
69524;BME280;56723;42.694;23.286;2022-10-31T14:31:57;95531.03;;;25.36;29.15
69524;BME280;56723;42.694;23.286;2022-10-31T14:34:36;95533.75;;;24.86;30.21
69524;BME280;56723;42.694;23.286;2022-10-31T14:37:20;95530.56;;;24.39;30.88
69524;BME280;56723;42.694;23.286;2022-10-31T14:51:18;95529.59;;;23.13;33.40
69524;BME280;56723;42.694;23.286;2022-10-31T14:53:49;95530.31;;;22.97;33.73
69524;BME280;56723;42.694;23.286;2022-10-31T14:56:22;95537.97;;;22.87;34.19
69524;BME280;56723;42.694;23.286;2022-10-31T14:58:53;95532.66;;;22.75;34.33
69524;BME280;56723;42.694;23.286;2022-10-31T15:07:26;95550.00;;;22.59;34.72
69524;BME280;56723;42.694;23.286;2022-10-31T15:12:30;95540.16;;;22.36;34.94
69524;BME280;56723;42.694;23.286;2022-10-31T15:15:10;95530.84;;;22.22;35.23
69524;BME280;56723;42.694;23.286;2022-10-31T15:17:43;95543.31;;;22.15;35.32
69524;BME280;56723;42.694;23.286;2022-10-31T15:20:20;95542.69;;;22.01;35.51
69524;BME280;56723;42.694;23.286;2022-10-31T15:22:48;95548.81;;;21.95;35.71
69524;BME280;56723;42.694;23.286;2022-10-31T15:25:22;95554.19;;;21.89;36.14
69524;BME280;56723;42.694;23.286;2022-10-31T15:27:51;95553.31;;;21.76;36.19
69524;BME280;56723;42.694;23.286;2022-10-31T15:30:28;95568.19;;;21.71;36.53
69524;BME280;56723;42.694;23.286;2022-10-31T15:32:55;95561.03;;;21.60;36.57
69524;BME280;56723;42.694;23.286;2022-10-31T15:35:25;95561.75;;;21.49;36.72
69524;BME280;56723;42.694;23.286;2022-10-31T15:37:53;95565.47;;;21.23;37.51
69524;BME280;56723;42.694;23.286;2022-10-31T15:40:24;95569.19;;;21.15;37.82
69524;BME280;56723;42.694;23.286;2022-10-31T15:42:57;95569.06;;;21.03;38.16
69524;BME280;56723;42.694;23.286;2022-10-31T15:45:27;95570.63;;;20.86;38.27
69524;BME280;56723;42.694;23.286;2022-10-31T15:48:14;95577.94;;;20.84;38.32
69524;BME280;56723;42.694;23.286;2022-10-31T15:50:53;95576.00;;;20.73;39.07
69524;BME280;56723;42.694;23.286;2022-10-31T15:53:25;95580.34;;;20.61;38.90
69524;BME280;56723;42.694;23.286;2022-10-31T15:56:00;95583.84;;;20.55;40.13
69524;BME280;56723;42.694;23.286;2022-10-31T15:58:28;95576.25;;;20.40;39.83
69524;BME280;56723;42.694;23.286;2022-10-31T16:01:04;95578.38;;;20.18;40.73